sensor_id;sensor_type;location;lat;lon;timestamp;temperature;humidity
3818;DHT22;1924;48.078;11.516;2023-03-13T00:02:18;6.30;99.90
3818;DHT22;1924;48.078;11.516;2023-03-13T00:04:44;6.30;99.90
3818;DHT22;1924;48.078;11.516;2023-03-13T00:07:11;6.20;99.90
3818;DHT22;1924;48.078;11.516;2023-03-13T00:09:39;6.20;99.90
3818;DHT22;1924;48.078;11.516;2023-03-13T00:12:06;6.20;99.90
3818;DHT22;1924;48.078;11.516;2023-03-13T00:14:33;6.30;99.90
3818;DHT22;1924;48.078;11.516;2023-03-13T00:17:00;6.30;99.90
3818;DHT22;1924;48.078;11.516;2023-03-13T00:19:27;6.30;99.90
3818;DHT22;1924;48.078;11.516;2023-03-13T00:21:54;6.30;99.90
3818;DHT22;1924;48.078;11.516;2023-03-13T00:24:20;6.20;99.90
3818;DHT22;1924;48.078;11.516;2023-03-13T00:26:48;6.40;99.90
3818;DHT22;1924;48.078;11.516;2023-03-13T00:29:15;6.30;99.90
3818;DHT22;1924;48.078;11.516;2023-03-13T00:31:42;6.30;99.90
3818;DHT22;1924;48.078;11.516;2023-03-13T00:34:08;6.30;99.90
3818;DHT22;1924;48.078;11.516;2023-03-13T00:36:36;6.20;99.90
3818;DHT22;1924;48.078;11.516;2023-03-13T00:39:04;6.20;99.90
3818;DHT22;1924;48.078;11.516;2023-03-13T00:41:32;6.20;99.90
3818;DHT22;1924;48.078;11.516;2023-03-13T00:44:01;6.20;99.90
3818;DHT22;1924;48.078;11.516;2023-03-13T00:46:29;6.10;99.90
3818;DHT22;1924;48.078;11.516;2023-03-13T00:48:56;6.00;99.90
3818;DHT22;1924;48.078;11.516;2023-03-13T00:51:24;6.10;99.90
3818;DHT22;1924;48.078;11.516;2023-03-13T00:53:51;6.10;99.90
3818;DHT22;1924;48.078;11.516;2023-03-13T00:56:19;6.10;99.90
3818;DHT22;1924;48.078;11.516;2023-03-13T00:58:47;6.00;99.90
3818;DHT22;1924;48.078;11.516;2023-03-13T01:01:17;5.90;99.90
3818;DHT22;1924;48.078;11.516;2023-03-13T01:03:47;5.90;99.90
3818;DHT22;1924;48.078;11.516;2023-03-13T01:06:15;5.90;99.90
3818;DHT22;1924;48.078;11.516;2023-03-13T01:08:43;5.70;99.90
3818;DHT22;1924;48.078;11.516;2023-03-13T01:11:11;5.70;99.90
3818;DHT22;1924;48.078;11.516;2023-03-13T01:13:38;5.60;99.90
3818;DHT22;1924;48.078;11.516;2023-03-13T01:16:06;5.60;99.90
3818;DHT22;1924;48.078;11.516;2023-03-13T01:18:36;5.60;99.90
3818;DHT22;1924;48.078;11.516;2023-03-13T01:21:05;5.60;99.90
3818;DHT22;1924;48.078;11.516;2023-03-13T01:23:32;5.60;99.90
3818;DHT22;1924;48.078;11.516;2023-03-13T01:25:59;5.50;99.90
3818;DHT22;1924;48.078;11.516;2023-03-13T01:28:26;5.50;99.90
3818;DHT22;1924;48.078;11.516;2023-03-13T01:30:53;5.40;99.90
3818;DHT22;1924;48.078;11.516;2023-03-13T01:33:19;5.40;99.90
3818;DHT22;1924;48.078;11.516;2023-03-13T01:35:48;5.40;99.90
3818;DHT22;1924;48.078;11.516;2023-03-13T01:38:15;5.30;99.90
3818;DHT22;1924;48.078;11.516;2023-03-13T01:40:43;5.30;99.90
3818;DHT22;1924;48.078;11.516;2023-03-13T01:43:18;5.30;99.90
3818;DHT22;1924;48.078;11.516;2023-03-13T01:46:04;5.30;99.90
3818;DHT22;1924;48.078;11.516;2023-03-13T01:48:42;5.20;99.90
3818;DHT22;1924;48.078;11.516;2023-03-13T01:51:15;5.20;99.90
3818;DHT22;1924;48.078;11.516;2023-03-13T01:53:46;5.10;99.90
3818;DHT22;1924;48.078;11.516;2023-03-13T01:56:19;5.10;99.90
3818;DHT22;1924;48.078;11.516;2023-03-13T01:58:48;5.10;99.90
3818;DHT22;1924;48.078;11.516;2023-03-13T02:01:16;5.10;99.90
3818;DHT22;1924;48.078;11.516;2023-03-13T02:03:46;5.10;99.90
3818;DHT22;1924;48.078;11.516;2023-03-13T02:06:15;5.00;99.90
3818;DHT22;1924;48.078;11.516;2023-03-13T02:08:46;5.00;99.90
3818;DHT22;1924;48.078;11.516;2023-03-13T02:11:22;5.00;99.90
3818;DHT22;1924;48.078;11.516;2023-03-13T02:13:51;5.00;99.90
3818;DHT22;1924;48.078;11.516;2023-03-13T02:16:19;4.90;99.90
3818;DHT22;1924;48.078;11.516;2023-03-13T02:18:47;4.90;99.90
3818;DHT22;1924;48.078;11.516;2023-03-13T02:21:22;4.90;99.90
3818;DHT22;1924;48.078;11.516;2023-03-13T02:23:58;5.00;99.90
3818;DHT22;1924;48.078;11.516;2023-03-13T02:26:28;4.90;99.90
3818;DHT22;1924;48.078;11.516;2023-03-13T02:28:54;5.00;99.90
3818;DHT22;1924;48.078;11.516;2023-03-13T02:31:21;4.90;99.90
3818;DHT22;1924;48.078;11.516;2023-03-13T02:33:48;4.90;99.90
3818;DHT22;1924;48.078;11.516;2023-03-13T02:36:16;4.90;99.90
3818;DHT22;1924;48.078;11.516;2023-03-13T02:38:47;4.90;99.90
3818;DHT22;1924;48.078;11.516;2023-03-13T02:41:17;4.90;99.90
3818;DHT22;1924;48.078;11.516;2023-03-13T02:43:45;4.90;99.90
3818;DHT22;1924;48.078;11.516;2023-03-13T02:46:13;4.90;99.90
3818;DHT22;1924;48.078;11.516;2023-03-13T02:48:42;4.90;99.90
3818;DHT22;1924;48.078;11.516;2023-03-13T02:51:13;4.90;99.90
3818;DHT22;1924;48.078;11.516;2023-03-13T02:53:42;4.90;99.90
3818;DHT22;1924;48.078;11.516;2023-03-13T02:56:11;4.90;99.90
3818;DHT22;1924;48.078;11.516;2023-03-13T02:58:40;4.90;99.90
3818;DHT22;1924;48.078;11.516;2023-03-13T03:01:08;4.90;99.90
3818;DHT22;1924;48.078;11.516;2023-03-13T03:03:35;4.90;99.90
3818;DHT22;1924;48.078;11.516;2023-03-13T05:01:42;5.90;99.90
3818;DHT22;1924;48.078;11.516;2023-03-13T05:04:09;5.80;99.90
3818;DHT22;1924;48.078;11.516;2023-03-13T05:06:36;5.90;99.90
3818;DHT22;1924;48.078;11.516;2023-03-13T05:09:03;5.90;99.90
3818;DHT22;1924;48.078;11.516;2023-03-13T05:11:30;6.00;99.90
3818;DHT22;1924;48.078;11.516;2023-03-13T05:13:57;5.90;99.90
3818;DHT22;1924;48.078;11.516;2023-03-13T05:16:23;6.00;99.90
3818;DHT22;1924;48.078;11.516;2023-03-13T05:18:51;6.00;99.90
3818;DHT22;1924;48.078;11.516;2023-03-13T05:21:18;6.00;99.90
3818;DHT22;1924;48.078;11.516;2023-03-13T05:23:45;6.00;99.90
3818;DHT22;1924;48.078;11.516;2023-03-13T05:26:12;5.90;99.90
3818;DHT22;1924;48.078;11.516;2023-03-13T05:28:38;5.90;99.90
3818;DHT22;1924;48.078;11.516;2023-03-13T05:31:05;6.00;99.90
3818;DHT22;1924;48.078;11.516;2023-03-13T05:33:32;6.00;99.90
3818;DHT22;1924;48.078;11.516;2023-03-13T05:36:00;6.00;99.90
3818;DHT22;1924;48.078;11.516;2023-03-13T05:38:26;6.00;99.90
3818;DHT22;1924;48.078;11.516;2023-03-13T05:40:53;6.00;99.90
3818;DHT22;1924;48.078;11.516;2023-03-13T05:43:20;6.10;99.90
3818;DHT22;1924;48.078;11.516;2023-03-13T05:45:46;6.10;99.90
3818;DHT22;1924;48.078;11.516;2023-03-13T05:48:13;6.20;99.90
3818;DHT22;1924;48.078;11.516;2023-03-13T05:50:40;6.20;99.90
3818;DHT22;1924;48.078;11.516;2023-03-13T05:53:08;6.30;99.90
3818;DHT22;1924;48.078;11.516;2023-03-13T05:55:35;6.40;99.90
3818;DHT22;1924;48.078;11.516;2023-03-13T05:58:01;6.40;99.90
3818;DHT22;1924;48.078;11.516;2023-03-13T06:00:28;6.60;99.90
3818;DHT22;1924;48.078;11.516;2023-03-13T06:02:55;6.60;99.90
3818;DHT22;1924;48.078;11.516;2023-03-13T06:05:21;6.60;99.90
3818;DHT22;1924;48.078;11.516;2023-03-13T06:07:48;6.60;99.90
3818;DHT22;1924;48.078;11.516;2023-03-13T06:10:17;6.60;99.90
3818;DHT22;1924;48.078;11.516;2023-03-13T06:12:44;6.70;99.90
3818;DHT22;1924;48.078;11.516;2023-03-13T06:15:17;6.70;99.90
3818;DHT22;1924;48.078;11.516;2023-03-13T06:17:43;6.70;99.90
3818;DHT22;1924;48.078;11.516;2023-03-13T06:20:11;6.70;99.90
3818;DHT22;1924;48.078;11.516;2023-03-13T06:22:38;6.80;99.90
3818;DHT22;1924;48.078;11.516;2023-03-13T06:25:05;6.90;99.90
3818;DHT22;1924;48.078;11.516;2023-03-13T06:27:34;6.90;99.90
3818;DHT22;1924;48.078;11.516;2023-03-13T06:30:00;7.00;99.90
3818;DHT22;1924;48.078;11.516;2023-03-13T06:32:27;7.10;99.90
3818;DHT22;1924;48.078;11.516;2023-03-13T06:34:54;7.10;99.90
3818;DHT22;1924;48.078;11.516;2023-03-13T06:37:21;7.10;99.90
3818;DHT22;1924;48.078;11.516;2023-03-13T06:39:48;7.10;99.90
3818;DHT22;1924;48.078;11.516;2023-03-13T06:42:14;7.10;99.90
3818;DHT22;1924;48.078;11.516;2023-03-13T06:44:42;7.20;99.90
3818;DHT22;1924;48.078;11.516;2023-03-13T06:47:09;7.10;99.90
3818;DHT22;1924;48.078;11.516;2023-03-13T06:49:36;7.10;99.90
3818;DHT22;1924;48.078;11.516;2023-03-13T06:52:03;7.20;99.90
3818;DHT22;1924;48.078;11.516;2023-03-13T06:54:30;7.20;99.90
3818;DHT22;1924;48.078;11.516;2023-03-13T06:56:57;7.20;99.90
3818;DHT22;1924;48.078;11.516;2023-03-13T06:59:23;7.20;99.90
3818;DHT22;1924;48.078;11.516;2023-03-13T07:01:51;7.20;99.90
3818;DHT22;1924;48.078;11.516;2023-03-13T07:04:18;7.20;99.90
3818;DHT22;1924;48.078;11.516;2023-03-13T07:06:45;7.20;99.90
3818;DHT22;1924;48.078;11.516;2023-03-13T07:09:12;7.20;99.90
3818;DHT22;1924;48.078;11.516;2023-03-13T07:11:38;7.20;99.90
3818;DHT22;1924;48.078;11.516;2023-03-13T07:14:05;7.20;99.90
3818;DHT22;1924;48.078;11.516;2023-03-13T07:16:32;7.20;99.90
3818;DHT22;1924;48.078;11.516;2023-03-13T07:19:00;7.30;99.90
3818;DHT22;1924;48.078;11.516;2023-03-13T07:21:26;7.30;99.90
3818;DHT22;1924;48.078;11.516;2023-03-13T07:23:53;7.40;99.90
3818;DHT22;1924;48.078;11.516;2023-03-13T07:26:20;7.50;99.90
3818;DHT22;1924;48.078;11.516;2023-03-13T07:28:47;7.60;99.90
3818;DHT22;1924;48.078;11.516;2023-03-13T07:31:16;7.60;99.90
3818;DHT22;1924;48.078;11.516;2023-03-13T07:33:43;7.80;99.90
3818;DHT22;1924;48.078;11.516;2023-03-13T07:36:13;7.90;99.90
3818;DHT22;1924;48.078;11.516;2023-03-13T07:38:40;7.90;99.90
3818;DHT22;1924;48.078;11.516;2023-03-13T07:41:10;7.90;99.90
3818;DHT22;1924;48.078;11.516;2023-03-13T07:43:38;8.00;99.90
3818;DHT22;1924;48.078;11.516;2023-03-13T07:46:06;8.00;99.90
3818;DHT22;1924;48.078;11.516;2023-03-13T07:48:35;8.00;99.90
3818;DHT22;1924;48.078;11.516;2023-03-13T07:51:04;8.00;99.90
3818;DHT22;1924;48.078;11.516;2023-03-13T07:53:34;8.00;99.90
3818;DHT22;1924;48.078;11.516;2023-03-13T07:56:02;8.00;99.90
3818;DHT22;1924;48.078;11.516;2023-03-13T07:58:30;8.00;99.90
3818;DHT22;1924;48.078;11.516;2023-03-13T08:01:00;8.00;99.90
3818;DHT22;1924;48.078;11.516;2023-03-13T08:03:28;8.10;99.90
3818;DHT22;1924;48.078;11.516;2023-03-13T08:05:59;8.10;99.90
3818;DHT22;1924;48.078;11.516;2023-03-13T08:08:26;8.10;99.90
3818;DHT22;1924;48.078;11.516;2023-03-13T08:10:58;8.20;99.90
3818;DHT22;1924;48.078;11.516;2023-03-13T08:13:25;8.40;99.90
3818;DHT22;1924;48.078;11.516;2023-03-13T08:15:59;8.40;99.90
3818;DHT22;1924;48.078;11.516;2023-03-13T08:18:26;8.50;99.90
3818;DHT22;1924;48.078;11.516;2023-03-13T08:20:54;8.60;99.90
3818;DHT22;1924;48.078;11.516;2023-03-13T08:23:22;8.80;99.90
3818;DHT22;1924;48.078;11.516;2023-03-13T08:25:49;8.90;99.90
3818;DHT22;1924;48.078;11.516;2023-03-13T08:28:17;9.00;99.90
3818;DHT22;1924;48.078;11.516;2023-03-13T08:30:45;9.00;99.90
3818;DHT22;1924;48.078;11.516;2023-03-13T08:33:14;9.00;99.90
3818;DHT22;1924;48.078;11.516;2023-03-13T08:35:40;9.00;99.90
3818;DHT22;1924;48.078;11.516;2023-03-13T08:38:07;8.90;99.90
3818;DHT22;1924;48.078;11.516;2023-03-13T08:40:35;8.90;99.90
3818;DHT22;1924;48.078;11.516;2023-03-13T08:43:03;8.80;99.90
3818;DHT22;1924;48.078;11.516;2023-03-13T08:45:31;8.80;99.90
3818;DHT22;1924;48.078;11.516;2023-03-13T08:47:58;8.80;99.90
3818;DHT22;1924;48.078;11.516;2023-03-13T08:50:27;8.80;99.90
3818;DHT22;1924;48.078;11.516;2023-03-13T08:52:55;8.80;99.90
3818;DHT22;1924;48.078;11.516;2023-03-13T08:55:21;8.90;99.90
3818;DHT22;1924;48.078;11.516;2023-03-13T08:57:48;9.00;99.90
3818;DHT22;1924;48.078;11.516;2023-03-13T09:00:17;9.20;99.90
3818;DHT22;1924;48.078;11.516;2023-03-13T09:02:47;9.30;99.90
3818;DHT22;1924;48.078;11.516;2023-03-13T09:05:14;9.50;99.90
3818;DHT22;1924;48.078;11.516;2023-03-13T09:07:41;9.80;99.90
3818;DHT22;1924;48.078;11.516;2023-03-13T09:10:09;9.90;99.90
3818;DHT22;1924;48.078;11.516;2023-03-13T09:12:37;10.30;99.90
3818;DHT22;1924;48.078;11.516;2023-03-13T09:15:05;10.50;99.90
3818;DHT22;1924;48.078;11.516;2023-03-13T09:17:32;10.60;99.90
3818;DHT22;1924;48.078;11.516;2023-03-13T09:20:02;10.70;99.90
3818;DHT22;1924;48.078;11.516;2023-03-13T09:22:30;10.70;99.90
3818;DHT22;1924;48.078;11.516;2023-03-13T09:24:57;10.60;99.90
3818;DHT22;1924;48.078;11.516;2023-03-13T09:27:24;10.60;99.90
3818;DHT22;1924;48.078;11.516;2023-03-13T09:29:52;10.60;99.90
3818;DHT22;1924;48.078;11.516;2023-03-13T09:32:21;10.80;99.90
3818;DHT22;1924;48.078;11.516;2023-03-13T09:34:51;11.00;99.90
3818;DHT22;1924;48.078;11.516;2023-03-13T09:37:19;11.10;99.90
3818;DHT22;1924;48.078;11.516;2023-03-13T09:39:46;11.40;99.90
3818;DHT22;1924;48.078;11.516;2023-03-13T09:42:15;11.50;99.90
3818;DHT22;1924;48.078;11.516;2023-03-13T09:44:45;11.70;99.90
3818;DHT22;1924;48.078;11.516;2023-03-13T09:47:20;11.70;99.30
3818;DHT22;1924;48.078;11.516;2023-03-13T09:49:49;11.80;99.10
3818;DHT22;1924;48.078;11.516;2023-03-13T09:52:22;11.90;98.60
3818;DHT22;1924;48.078;11.516;2023-03-13T09:54:52;12.00;97.60
3818;DHT22;1924;48.078;11.516;2023-03-13T09:57:27;12.20;98.00
3818;DHT22;1924;48.078;11.516;2023-03-13T09:59:58;12.40;97.20
3818;DHT22;1924;48.078;11.516;2023-03-13T10:02:30;12.70;97.40
3818;DHT22;1924;48.078;11.516;2023-03-13T10:05:14;13.00;97.00
3818;DHT22;1924;48.078;11.516;2023-03-13T10:07:43;13.30;97.20
3818;DHT22;1924;48.078;11.516;2023-03-13T10:10:14;13.20;95.90
3818;DHT22;1924;48.078;11.516;2023-03-13T10:12:46;13.20;95.80
3818;DHT22;1924;48.078;11.516;2023-03-13T10:15:29;13.40;96.20
3818;DHT22;1924;48.078;11.516;2023-03-13T10:17:59;13.80;95.60
3818;DHT22;1924;48.078;11.516;2023-03-13T10:20:34;14.00;94.10
3818;DHT22;1924;48.078;11.516;2023-03-13T10:23:06;14.10;93.00
3818;DHT22;1924;48.078;11.516;2023-03-13T10:25:35;14.20;94.70
3818;DHT22;1924;48.078;11.516;2023-03-13T10:28:03;14.30;92.70
3818;DHT22;1924;48.078;11.516;2023-03-13T10:30:33;14.20;92.50
3818;DHT22;1924;48.078;11.516;2023-03-13T10:33:19;14.30;92.40
3818;DHT22;1924;48.078;11.516;2023-03-13T10:35:59;14.60;92.00
3818;DHT22;1924;48.078;11.516;2023-03-13T10:38:27;14.70;92.00
3818;DHT22;1924;48.078;11.516;2023-03-13T10:41:00;14.80;91.00
3818;DHT22;1924;48.078;11.516;2023-03-13T10:43:28;14.90;91.50
3818;DHT22;1924;48.078;11.516;2023-03-13T10:45:55;14.90;91.60
3818;DHT22;1924;48.078;11.516;2023-03-13T10:48:24;14.90;90.90
3818;DHT22;1924;48.078;11.516;2023-03-13T10:50:53;14.90;92.30
3818;DHT22;1924;48.078;11.516;2023-03-13T10:53:25;15.00;90.40
3818;DHT22;1924;48.078;11.516;2023-03-13T10:56:04;15.00;89.00
3818;DHT22;1924;48.078;11.516;2023-03-13T10:58:39;15.10;90.30
3818;DHT22;1924;48.078;11.516;2023-03-13T11:01:19;15.20;92.10
3818;DHT22;1924;48.078;11.516;2023-03-13T11:03:48;15.40;90.10
3818;DHT22;1924;48.078;11.516;2023-03-13T11:06:29;15.70;91.00
3818;DHT22;1924;48.078;11.516;2023-03-13T11:09:02;15.80;90.10
3818;DHT22;1924;48.078;11.516;2023-03-13T11:11:44;16.10;90.00
3818;DHT22;1924;48.078;11.516;2023-03-13T11:14:15;16.20;87.40
3818;DHT22;1924;48.078;11.516;2023-03-13T11:16:46;16.40;86.00
3818;DHT22;1924;48.078;11.516;2023-03-13T11:19:27;16.70;86.00
3818;DHT22;1924;48.078;11.516;2023-03-13T11:22:03;16.90;86.60
3818;DHT22;1924;48.078;11.516;2023-03-13T11:24:39;16.80;83.90
3818;DHT22;1924;48.078;11.516;2023-03-13T11:27:17;16.90;83.30
3818;DHT22;1924;48.078;11.516;2023-03-13T11:29:57;16.90;85.10
3818;DHT22;1924;48.078;11.516;2023-03-13T11:32:34;16.90;85.10
3818;DHT22;1924;48.078;11.516;2023-03-13T11:35:15;17.00;85.50
3818;DHT22;1924;48.078;11.516;2023-03-13T11:37:44;17.00;85.40
3818;DHT22;1924;48.078;11.516;2023-03-13T11:40:20;16.90;87.10
3818;DHT22;1924;48.078;11.516;2023-03-13T11:46:11;16.60;86.20
3818;DHT22;1924;48.078;11.516;2023-03-13T11:49:07;16.70;87.60
3818;DHT22;1924;48.078;11.516;2023-03-13T11:51:51;16.60;89.10
3818;DHT22;1924;48.078;11.516;2023-03-13T11:54:38;16.60;89.50
3818;DHT22;1924;48.078;11.516;2023-03-13T11:57:13;16.70;90.70
3818;DHT22;1924;48.078;11.516;2023-03-13T11:59:48;16.80;90.70
3818;DHT22;1924;48.078;11.516;2023-03-13T12:02:23;16.90;90.20
3818;DHT22;1924;48.078;11.516;2023-03-13T12:04:57;17.00;90.10
3818;DHT22;1924;48.078;11.516;2023-03-13T12:07:29;17.20;91.40
3818;DHT22;1924;48.078;11.516;2023-03-13T12:10:00;17.40;90.50
3818;DHT22;1924;48.078;11.516;2023-03-13T12:12:37;17.30;90.50
3818;DHT22;1924;48.078;11.516;2023-03-13T12:15:17;17.20;91.20
3818;DHT22;1924;48.078;11.516;2023-03-13T12:17:52;17.50;90.60
3818;DHT22;1924;48.078;11.516;2023-03-13T12:20:26;17.40;89.00
3818;DHT22;1924;48.078;11.516;2023-03-13T12:23:03;17.40;90.20
3818;DHT22;1924;48.078;11.516;2023-03-13T12:25:36;17.40;88.50
3818;DHT22;1924;48.078;11.516;2023-03-13T12:28:21;17.40;89.20
3818;DHT22;1924;48.078;11.516;2023-03-13T12:30:57;17.40;89.50
3818;DHT22;1924;48.078;11.516;2023-03-13T12:33:28;17.30;87.80
3818;DHT22;1924;48.078;11.516;2023-03-13T12:36:05;17.30;88.70
3818;DHT22;1924;48.078;11.516;2023-03-13T12:38:37;17.30;89.00
3818;DHT22;1924;48.078;11.516;2023-03-13T12:41:21;17.50;87.60
3818;DHT22;1924;48.078;11.516;2023-03-13T12:43:52;17.50;88.00
3818;DHT22;1924;48.078;11.516;2023-03-13T12:46:41;17.80;89.60
3818;DHT22;1924;48.078;11.516;2023-03-13T12:49:32;17.90;87.20
3818;DHT22;1924;48.078;11.516;2023-03-13T12:58:17;18.10;86.30
3818;DHT22;1924;48.078;11.516;2023-03-13T13:00:50;18.20;86.50
3818;DHT22;1924;48.078;11.516;2023-03-13T13:03:28;18.00;84.50
3818;DHT22;1924;48.078;11.516;2023-03-13T13:06:08;18.10;86.10
3818;DHT22;1924;48.078;11.516;2023-03-13T13:08:38;18.10;85.90
3818;DHT22;1924;48.078;11.516;2023-03-13T13:11:37;18.10;86.00
3818;DHT22;1924;48.078;11.516;2023-03-13T13:20:46;18.40;86.10
3818;DHT22;1924;48.078;11.516;2023-03-13T13:23:32;18.40;84.20
3818;DHT22;1924;48.078;11.516;2023-03-13T13:32:44;18.80;84.60
3818;DHT22;1924;48.078;11.516;2023-03-13T13:35:25;18.70;85.90
3818;DHT22;1924;48.078;11.516;2023-03-13T13:38:28;18.50;84.60
3818;DHT22;1924;48.078;11.516;2023-03-13T13:44:29;18.30;83.00
3818;DHT22;1924;48.078;11.516;2023-03-13T13:46:59;18.10;82.90
3818;DHT22;1924;48.078;11.516;2023-03-13T13:49:50;18.10;82.60
3818;DHT22;1924;48.078;11.516;2023-03-13T13:52:32;18.00;83.10
3818;DHT22;1924;48.078;11.516;2023-03-13T13:55:14;17.80;83.50
3818;DHT22;1924;48.078;11.516;2023-03-13T13:57:58;17.70;83.80
3818;DHT22;1924;48.078;11.516;2023-03-13T14:00:37;17.50;83.90
3818;DHT22;1924;48.078;11.516;2023-03-13T14:03:17;17.40;84.60
3818;DHT22;1924;48.078;11.516;2023-03-13T14:05:46;17.40;85.50
3818;DHT22;1924;48.078;11.516;2023-03-13T14:08:20;17.30;84.80
3818;DHT22;1924;48.078;11.516;2023-03-13T14:10:53;17.30;84.80
3818;DHT22;1924;48.078;11.516;2023-03-13T14:13:30;17.20;86.60
3818;DHT22;1924;48.078;11.516;2023-03-13T14:16:17;17.30;85.80
3818;DHT22;1924;48.078;11.516;2023-03-13T14:18:45;17.30;85.50
3818;DHT22;1924;48.078;11.516;2023-03-13T14:21:13;17.20;85.00
3818;DHT22;1924;48.078;11.516;2023-03-13T14:23:41;17.00;84.80
3818;DHT22;1924;48.078;11.516;2023-03-13T14:26:13;17.00;85.40
3818;DHT22;1924;48.078;11.516;2023-03-13T14:28:44;17.00;85.30
3818;DHT22;1924;48.078;11.516;2023-03-13T14:31:23;17.00;85.20
3818;DHT22;1924;48.078;11.516;2023-03-13T14:33:55;16.90;85.40
3818;DHT22;1924;48.078;11.516;2023-03-13T14:36:24;16.90;85.20
3818;DHT22;1924;48.078;11.516;2023-03-13T14:38:53;16.80;85.50
3818;DHT22;1924;48.078;11.516;2023-03-13T14:41:30;16.80;85.70
3818;DHT22;1924;48.078;11.516;2023-03-13T14:44:05;16.80;86.30
3818;DHT22;1924;48.078;11.516;2023-03-13T14:46:34;16.80;86.00
3818;DHT22;1924;48.078;11.516;2023-03-13T14:49:14;16.80;85.90
3818;DHT22;1924;48.078;11.516;2023-03-13T14:51:43;16.90;84.50
3818;DHT22;1924;48.078;11.516;2023-03-13T14:54:32;16.80;84.70
3818;DHT22;1924;48.078;11.516;2023-03-13T14:57:12;16.70;84.60
3818;DHT22;1924;48.078;11.516;2023-03-13T14:59:42;16.70;85.20
3818;DHT22;1924;48.078;11.516;2023-03-13T15:02:18;16.60;84.70
3818;DHT22;1924;48.078;11.516;2023-03-13T15:04:53;16.60;85.30
3818;DHT22;1924;48.078;11.516;2023-03-13T15:07:21;16.50;85.80
3818;DHT22;1924;48.078;11.516;2023-03-13T15:09:51;16.50;85.80
3818;DHT22;1924;48.078;11.516;2023-03-13T15:12:23;16.50;86.10
3818;DHT22;1924;48.078;11.516;2023-03-13T15:14:52;16.40;84.90
3818;DHT22;1924;48.078;11.516;2023-03-13T15:17:20;16.40;85.50
3818;DHT22;1924;48.078;11.516;2023-03-13T15:19:50;16.30;86.10
3818;DHT22;1924;48.078;11.516;2023-03-13T15:22:23;16.30;86.80
3818;DHT22;1924;48.078;11.516;2023-03-13T15:24:50;16.30;87.10
3818;DHT22;1924;48.078;11.516;2023-03-13T15:27:19;16.20;86.30
3818;DHT22;1924;48.078;11.516;2023-03-13T15:29:48;16.30;85.70
3818;DHT22;1924;48.078;11.516;2023-03-13T15:32:22;16.40;86.30
3818;DHT22;1924;48.078;11.516;2023-03-13T15:34:50;16.40;85.80
3818;DHT22;1924;48.078;11.516;2023-03-13T15:37:17;16.30;86.60
3818;DHT22;1924;48.078;11.516;2023-03-13T15:39:45;16.20;87.30
3818;DHT22;1924;48.078;11.516;2023-03-13T15:42:13;16.10;87.50
3818;DHT22;1924;48.078;11.516;2023-03-13T15:44:40;16.20;86.50
3818;DHT22;1924;48.078;11.516;2023-03-13T15:47:11;16.20;86.10
3818;DHT22;1924;48.078;11.516;2023-03-13T15:49:39;16.20;85.90
3818;DHT22;1924;48.078;11.516;2023-03-13T15:52:13;16.20;85.80
3818;DHT22;1924;48.078;11.516;2023-03-13T15:54:43;16.20;85.50
3818;DHT22;1924;48.078;11.516;2023-03-13T15:57:12;16.10;85.90
3818;DHT22;1924;48.078;11.516;2023-03-13T15:59:39;16.20;85.90
3818;DHT22;1924;48.078;11.516;2023-03-13T16:02:13;16.20;85.70
3818;DHT22;1924;48.078;11.516;2023-03-13T16:04:40;16.20;85.80
3818;DHT22;1924;48.078;11.516;2023-03-13T16:07:08;16.30;85.40
3818;DHT22;1924;48.078;11.516;2023-03-13T16:09:35;16.30;84.80
3818;DHT22;1924;48.078;11.516;2023-03-13T16:12:04;16.30;85.50
3818;DHT22;1924;48.078;11.516;2023-03-13T16:14:33;16.30;85.60
3818;DHT22;1924;48.078;11.516;2023-03-13T16:17:00;16.30;84.80
3818;DHT22;1924;48.078;11.516;2023-03-13T16:19:28;16.30;85.00
3818;DHT22;1924;48.078;11.516;2023-03-13T16:21:55;16.30;84.80
3818;DHT22;1924;48.078;11.516;2023-03-13T16:24:22;16.20;84.60
3818;DHT22;1924;48.078;11.516;2023-03-13T16:26:49;16.20;84.70
3818;DHT22;1924;48.078;11.516;2023-03-13T16:29:16;15.90;85.10
3818;DHT22;1924;48.078;11.516;2023-03-13T16:31:43;16.00;85.90
3818;DHT22;1924;48.078;11.516;2023-03-13T16:34:10;15.80;85.80
3818;DHT22;1924;48.078;11.516;2023-03-13T16:36:38;15.60;86.20
3818;DHT22;1924;48.078;11.516;2023-03-13T16:39:06;15.70;86.50
3818;DHT22;1924;48.078;11.516;2023-03-13T16:41:34;15.60;86.50
3818;DHT22;1924;48.078;11.516;2023-03-13T16:44:01;15.60;86.90
3818;DHT22;1924;48.078;11.516;2023-03-13T16:46:35;15.40;87.40
3818;DHT22;1924;48.078;11.516;2023-03-13T16:49:02;15.40;87.90
3818;DHT22;1924;48.078;11.516;2023-03-13T16:51:29;15.30;88.60
3818;DHT22;1924;48.078;11.516;2023-03-13T16:53:58;15.20;88.90
3818;DHT22;1924;48.078;11.516;2023-03-13T16:56:28;15.10;89.30
3818;DHT22;1924;48.078;11.516;2023-03-13T16:58:55;15.00;89.60
3818;DHT22;1924;48.078;11.516;2023-03-13T17:01:23;15.00;89.60
3818;DHT22;1924;48.078;11.516;2023-03-13T17:03:50;15.00;90.00
3818;DHT22;1924;48.078;11.516;2023-03-13T17:06:19;15.00;89.60
3818;DHT22;1924;48.078;11.516;2023-03-13T17:08:46;14.90;90.10
3818;DHT22;1924;48.078;11.516;2023-03-13T17:11:16;14.90;90.30
3818;DHT22;1924;48.078;11.516;2023-03-13T17:13:44;14.90;90.20
3818;DHT22;1924;48.078;11.516;2023-03-13T17:16:13;14.80;90.40
3818;DHT22;1924;48.078;11.516;2023-03-13T17:18:41;14.80;90.50
3818;DHT22;1924;48.078;11.516;2023-03-13T17:21:11;14.70;90.90
3818;DHT22;1924;48.078;11.516;2023-03-13T17:23:38;14.60;90.90
3818;DHT22;1924;48.078;11.516;2023-03-13T17:26:11;14.60;91.30
3818;DHT22;1924;48.078;11.516;2023-03-13T17:28:41;14.50;91.30
3818;DHT22;1924;48.078;11.516;2023-03-13T17:31:09;14.40;91.30
3818;DHT22;1924;48.078;11.516;2023-03-13T17:33:36;14.40;91.30
3818;DHT22;1924;48.078;11.516;2023-03-13T17:36:14;14.30;91.50
3818;DHT22;1924;48.078;11.516;2023-03-13T17:38:41;14.30;91.30
3818;DHT22;1924;48.078;11.516;2023-03-13T17:41:09;14.20;91.50
3818;DHT22;1924;48.078;11.516;2023-03-13T17:43:37;14.10;91.60
3818;DHT22;1924;48.078;11.516;2023-03-13T17:46:11;14.00;91.70
3818;DHT22;1924;48.078;11.516;2023-03-13T17:48:38;14.10;91.40
3818;DHT22;1924;48.078;11.516;2023-03-13T17:51:07;14.00;91.10
3818;DHT22;1924;48.078;11.516;2023-03-13T17:53:37;14.10;90.60
3818;DHT22;1924;48.078;11.516;2023-03-13T17:56:14;13.90;90.00
3818;DHT22;1924;48.078;11.516;2023-03-13T17:58:41;13.90;90.30
3818;DHT22;1924;48.078;11.516;2023-03-13T18:01:11;13.80;90.30
3818;DHT22;1924;48.078;11.516;2023-03-13T18:03:39;13.80;90.30
3818;DHT22;1924;48.078;11.516;2023-03-13T18:06:14;13.80;90.40
3818;DHT22;1924;48.078;11.516;2023-03-13T18:08:41;13.80;90.40
3818;DHT22;1924;48.078;11.516;2023-03-13T18:11:09;13.70;89.50
3818;DHT22;1924;48.078;11.516;2023-03-13T18:13:36;13.70;89.20
3818;DHT22;1924;48.078;11.516;2023-03-13T18:16:12;13.60;88.90
3818;DHT22;1924;48.078;11.516;2023-03-13T18:18:41;13.50;89.60
3818;DHT22;1924;48.078;11.516;2023-03-13T18:21:07;13.50;90.30
3818;DHT22;1924;48.078;11.516;2023-03-13T18:23:34;13.40;90.30
3818;DHT22;1924;48.078;11.516;2023-03-13T18:26:25;13.30;90.50
3818;DHT22;1924;48.078;11.516;2023-03-13T18:28:52;13.20;90.20
3818;DHT22;1924;48.078;11.516;2023-03-13T18:31:26;13.20;88.70
3818;DHT22;1924;48.078;11.516;2023-03-13T18:33:55;13.20;89.30
3818;DHT22;1924;48.078;11.516;2023-03-13T18:36:22;13.10;89.50